sensor_id;sensor_type;location;lat;lon;timestamp;pressure;altitude;pressure_sealevel;temperature;humidity
49949;BME280;35840;45.982;8.890;2024-01-06T00:02:14;97049.72;;;3.10;100.00
49949;BME280;35840;45.982;8.890;2024-01-06T00:04:41;97046.19;;;2.97;100.00
49949;BME280;35840;45.982;8.890;2024-01-06T00:07:08;97035.25;;;2.79;100.00
49949;BME280;35840;45.982;8.890;2024-01-06T00:09:35;97039.94;;;2.86;100.00
49949;BME280;35840;45.982;8.890;2024-01-06T00:12:02;97040.38;;;2.95;100.00
49949;BME280;35840;45.982;8.890;2024-01-06T00:14:29;97024.78;;;2.85;100.00
49949;BME280;35840;45.982;8.890;2024-01-06T00:16:56;97028.69;;;2.74;100.00
49949;BME280;35840;45.982;8.890;2024-01-06T00:19:23;97029.38;;;2.78;100.00
49949;BME280;35840;45.982;8.890;2024-01-06T00:21:50;97029.72;;;2.70;100.00
49949;BME280;35840;45.982;8.890;2024-01-06T00:24:17;97025.63;;;2.68;100.00
49949;BME280;35840;45.982;8.890;2024-01-06T00:26:44;97020.03;;;2.79;100.00
49949;BME280;35840;45.982;8.890;2024-01-06T00:29:11;97011.41;;;2.65;100.00
49949;BME280;35840;45.982;8.890;2024-01-06T00:31:38;97022.97;;;2.71;100.00
49949;BME280;35840;45.982;8.890;2024-01-06T00:34:06;97019.94;;;2.80;100.00
49949;BME280;35840;45.982;8.890;2024-01-06T00:36:33;97026.50;;;2.84;100.00
49949;BME280;35840;45.982;8.890;2024-01-06T00:38:59;97020.69;;;2.82;100.00
49949;BME280;35840;45.982;8.890;2024-01-06T00:41:26;97020.75;;;2.81;100.00
49949;BME280;35840;45.982;8.890;2024-01-06T00:43:54;97017.72;;;2.74;100.00
49949;BME280;35840;45.982;8.890;2024-01-06T00:46:20;97014.22;;;2.77;100.00
49949;BME280;35840;45.982;8.890;2024-01-06T00:48:47;97020.84;;;2.79;100.00
49949;BME280;35840;45.982;8.890;2024-01-06T00:51:14;97018.22;;;2.81;100.00
49949;BME280;35840;45.982;8.890;2024-01-06T00:53:41;97020.69;;;2.82;100.00
49949;BME280;35840;45.982;8.890;2024-01-06T00:56:08;97030.03;;;2.98;100.00
49949;BME280;35840;45.982;8.890;2024-01-06T00:58:35;97021.59;;;2.81;100.00
49949;BME280;35840;45.982;8.890;2024-01-06T01:01:01;97023.97;;;2.84;100.00
49949;BME280;35840;45.982;8.890;2024-01-06T01:03:28;97019.88;;;2.82;100.00
49949;BME280;35840;45.982;8.890;2024-01-06T01:05:56;97024.22;;;2.80;100.00
49949;BME280;35840;45.982;8.890;2024-01-06T01:08:23;97023.16;;;2.66;100.00
49949;BME280;35840;45.982;8.890;2024-01-06T01:10:49;97025.69;;;2.84;100.00
49949;BME280;35840;45.982;8.890;2024-01-06T01:13:16;97021.50;;;2.83;100.00
49949;BME280;35840;45.982;8.890;2024-01-06T01:15:43;97025.63;;;2.85;100.00
49949;BME280;35840;45.982;8.890;2024-01-06T01:18:10;97021.75;;;2.78;100.00
49949;BME280;35840;45.982;8.890;2024-01-06T01:20:38;97019.31;;;2.92;100.00
49949;BME280;35840;45.982;8.890;2024-01-06T01:23:04;97019.00;;;2.99;100.00
49949;BME280;35840;45.982;8.890;2024-01-06T01:25:31;97023.44;;;3.11;100.00
49949;BME280;35840;45.982;8.890;2024-01-06T01:27:58;97020.81;;;2.97;100.00
49949;BME280;35840;45.982;8.890;2024-01-06T01:30:25;97013.22;;;3.13;100.00
49949;BME280;35840;45.982;8.890;2024-01-06T01:32:52;97012.69;;;3.06;100.00
49949;BME280;35840;45.982;8.890;2024-01-06T01:35:19;97005.75;;;2.93;100.00
49949;BME280;35840;45.982;8.890;2024-01-06T01:37:46;97015.16;;;3.07;100.00
49949;BME280;35840;45.982;8.890;2024-01-06T01:40:13;97012.06;;;3.18;100.00
49949;BME280;35840;45.982;8.890;2024-01-06T01:42:42;97017.75;;;3.23;100.00
49949;BME280;35840;45.982;8.890;2024-01-06T01:45:09;97021.97;;;3.07;100.00
49949;BME280;35840;45.982;8.890;2024-01-06T01:47:39;97010.25;;;3.04;100.00
49949;BME280;35840;45.982;8.890;2024-01-06T01:50:07;97008.19;;;2.95;100.00
49949;BME280;35840;45.982;8.890;2024-01-06T01:52:35;97007.06;;;3.01;100.00
49949;BME280;35840;45.982;8.890;2024-01-06T01:55:03;96996.47;;;2.77;100.00
49949;BME280;35840;45.982;8.890;2024-01-06T01:57:30;97014.13;;;2.78;100.00
49949;BME280;35840;45.982;8.890;2024-01-06T02:00:00;97001.47;;;2.94;100.00
49949;BME280;35840;45.982;8.890;2024-01-06T02:02:37;97011.09;;;3.05;100.00
49949;BME280;35840;45.982;8.890;2024-01-06T02:05:04;97005.25;;;3.03;100.00
49949;BME280;35840;45.982;8.890;2024-01-06T02:07:31;97005.50;;;3.14;100.00
49949;BME280;35840;45.982;8.890;2024-01-06T02:09:58;97008.84;;;2.99;100.00
49949;BME280;35840;45.982;8.890;2024-01-06T02:12:25;96998.13;;;2.93;100.00
49949;BME280;35840;45.982;8.890;2024-01-06T02:14:52;96981.63;;;2.85;100.00
49949;BME280;35840;45.982;8.890;2024-01-06T02:17:18;96995.88;;;2.87;100.00
49949;BME280;35840;45.982;8.890;2024-01-06T02:19:46;96981.59;;;2.69;100.00
49949;BME280;35840;45.982;8.890;2024-01-06T02:22:13;96985.47;;;2.76;100.00
49949;BME280;35840;45.982;8.890;2024-01-06T02:24:40;96979.09;;;2.85;100.00
49949;BME280;35840;45.982;8.890;2024-01-06T02:27:07;96975.75;;;2.84;100.00
49949;BME280;35840;45.982;8.890;2024-01-06T02:29:34;96973.72;;;2.91;100.00
49949;BME280;35840;45.982;8.890;2024-01-06T02:32:01;96978.03;;;2.89;100.00
49949;BME280;35840;45.982;8.890;2024-01-06T02:34:27;96960.88;;;2.94;100.00
49949;BME280;35840;45.982;8.890;2024-01-06T02:36:55;96967.97;;;3.03;100.00
49949;BME280;35840;45.982;8.890;2024-01-06T02:39:22;96961.72;;;3.10;100.00
49949;BME280;35840;45.982;8.890;2024-01-06T02:41:50;96961.38;;;3.17;100.00
49949;BME280;35840;45.982;8.890;2024-01-06T02:44:17;96961.19;;;3.20;100.00
49949;BME280;35840;45.982;8.890;2024-01-06T02:46:44;96953.34;;;3.24;100.00
49949;BME280;35840;45.982;8.890;2024-01-06T02:49:11;96949.91;;;3.25;100.00
49949;BME280;35840;45.982;8.890;2024-01-06T02:51:38;96945.88;;;3.21;100.00
49949;BME280;35840;45.982;8.890;2024-01-06T02:54:05;96950.16;;;3.21;100.00
49949;BME280;35840;45.982;8.890;2024-01-06T02:56:31;96940.16;;;3.18;100.00
49949;BME280;35840;45.982;8.890;2024-01-06T02:58:58;96949.72;;;3.28;100.00
49949;BME280;35840;45.982;8.890;2024-01-06T03:01:25;96935.16;;;3.32;100.00
49949;BME280;35840;45.982;8.890;2024-01-06T03:03:52;96928.03;;;3.39;100.00
49949;BME280;35840;45.982;8.890;2024-01-06T03:06:19;96914.66;;;3.35;100.00
49949;BME280;35840;45.982;8.890;2024-01-06T03:08:46;96921.22;;;3.39;100.00
49949;BME280;35840;45.982;8.890;2024-01-06T03:11:12;96923.66;;;3.41;100.00
49949;BME280;35840;45.982;8.890;2024-01-06T03:13:39;96920.97;;;3.28;100.00
49949;BME280;35840;45.982;8.890;2024-01-06T03:16:06;96921.38;;;3.36;100.00
49949;BME280;35840;45.982;8.890;2024-01-06T03:18:33;96925.00;;;3.32;100.00
49949;BME280;35840;45.982;8.890;2024-01-06T03:21:00;96914.00;;;3.32;100.00
49949;BME280;35840;45.982;8.890;2024-01-06T03:23:27;96917.63;;;3.27;100.00
49949;BME280;35840;45.982;8.890;2024-01-06T03:25:54;96916.97;;;3.24;100.00
49949;BME280;35840;45.982;8.890;2024-01-06T03:28:20;96913.03;;;3.18;100.00
49949;BME280;35840;45.982;8.890;2024-01-06T03:30:47;96914.03;;;3.16;100.00
49949;BME280;35840;45.982;8.890;2024-01-06T03:33:15;96908.31;;;3.12;100.00
49949;BME280;35840;45.982;8.890;2024-01-06T03:35:42;96899.53;;;3.02;100.00
49949;BME280;35840;45.982;8.890;2024-01-06T03:38:08;96898.06;;;3.14;100.00
49949;BME280;35840;45.982;8.890;2024-01-06T03:40:35;96896.81;;;3.21;100.00
49949;BME280;35840;45.982;8.890;2024-01-06T03:43:02;96893.53;;;3.19;100.00
49949;BME280;35840;45.982;8.890;2024-01-06T03:45:29;96882.41;;;3.05;100.00
49949;BME280;35840;45.982;8.890;2024-01-06T03:47:56;96881.09;;;3.14;100.00
49949;BME280;35840;45.982;8.890;2024-01-06T03:50:23;96880.28;;;3.14;100.00
49949;BME280;35840;45.982;8.890;2024-01-06T03:52:50;96865.94;;;3.13;100.00
49949;BME280;35840;45.982;8.890;2024-01-06T03:55:16;96877.13;;;3.24;100.00
49949;BME280;35840;45.982;8.890;2024-01-06T03:57:43;96876.19;;;3.11;100.00
49949;BME280;35840;45.982;8.890;2024-01-06T04:00:10;96879.78;;;3.07;100.00
49949;BME280;35840;45.982;8.890;2024-01-06T04:02:37;96871.22;;;2.93;100.00
49949;BME280;35840;45.982;8.890;2024-01-06T04:05:04;96879.22;;;3.02;100.00
49949;BME280;35840;45.982;8.890;2024-01-06T04:07:31;96878.66;;;2.97;100.00
49949;BME280;35840;45.982;8.890;2024-01-06T04:09:58;96873.31;;;3.01;100.00
49949;BME280;35840;45.982;8.890;2024-01-06T04:12:25;96879.47;;;2.97;100.00
49949;BME280;35840;45.982;8.890;2024-01-06T04:14:52;96874.56;;;2.94;100.00
49949;BME280;35840;45.982;8.890;2024-01-06T04:17:19;96863.75;;;2.90;100.00
49949;BME280;35840;45.982;8.890;2024-01-06T04:19:46;96865.22;;;2.95;100.00
49949;BME280;35840;45.982;8.890;2024-01-06T04:22:13;96865.94;;;3.13;100.00
49949;BME280;35840;45.982;8.890;2024-01-06T04:24:40;96859.00;;;3.16;100.00
49949;BME280;35840;45.982;8.890;2024-01-06T04:27:07;96860.53;;;3.19;100.00
49949;BME280;35840;45.982;8.890;2024-01-06T04:29:34;96859.28;;;3.26;100.00
49949;BME280;35840;45.982;8.890;2024-01-06T04:32:01;96854.63;;;3.18;100.00
49949;BME280;35840;45.982;8.890;2024-01-06T04:34:28;96859.97;;;3.14;100.00
49949;BME280;35840;45.982;8.890;2024-01-06T04:36:55;96861.69;;;3.13;100.00
49949;BME280;35840;45.982;8.890;2024-01-06T04:39:22;96857.66;;;3.09;100.00
49949;BME280;35840;45.982;8.890;2024-01-06T04:41:49;96854.22;;;3.10;100.00
49949;BME280;35840;45.982;8.890;2024-01-06T04:44:20;96836.63;;;3.07;100.00
49949;BME280;35840;45.982;8.890;2024-01-06T04:46:46;96837.84;;;3.16;100.00
49949;BME280;35840;45.982;8.890;2024-01-06T04:49:13;96831.44;;;3.24;100.00
49949;BME280;35840;45.982;8.890;2024-01-06T04:51:40;96831.19;;;3.13;100.00
49949;BME280;35840;45.982;8.890;2024-01-06T04:54:07;96830.72;;;3.22;100.00
49949;BME280;35840;45.982;8.890;2024-01-06T04:56:34;96839.63;;;3.30;100.00
49949;BME280;35840;45.982;8.890;2024-01-06T04:59:02;96829.47;;;3.30;100.00
49949;BME280;35840;45.982;8.890;2024-01-06T05:01:29;96818.13;;;3.35;100.00
49949;BME280;35840;45.982;8.890;2024-01-06T05:03:56;96804.47;;;3.38;100.00
49949;BME280;35840;45.982;8.890;2024-01-06T05:06:23;96820.94;;;3.31;100.00
49949;BME280;35840;45.982;8.890;2024-01-06T05:08:50;96827.31;;;3.38;100.00
49949;BME280;35840;45.982;8.890;2024-01-06T05:11:17;96822.75;;;3.28;100.00
49949;BME280;35840;45.982;8.890;2024-01-06T05:13:44;96815.22;;;3.27;100.00
49949;BME280;35840;45.982;8.890;2024-01-06T05:16:11;96826.03;;;3.15;100.00
49949;BME280;35840;45.982;8.890;2024-01-06T05:18:37;96830.97;;;3.18;100.00
49949;BME280;35840;45.982;8.890;2024-01-06T05:21:04;96813.44;;;3.13;100.00
49949;BME280;35840;45.982;8.890;2024-01-06T05:23:31;96837.00;;;3.31;100.00
49949;BME280;35840;45.982;8.890;2024-01-06T05:25:58;96826.75;;;3.33;100.00
49949;BME280;35840;45.982;8.890;2024-01-06T05:28:25;96826.19;;;3.27;100.00
49949;BME280;35840;45.982;8.890;2024-01-06T05:30:52;96820.47;;;3.24;100.00
49949;BME280;35840;45.982;8.890;2024-01-06T05:33:19;96829.94;;;3.36;100.00
49949;BME280;35840;45.982;8.890;2024-01-06T05:35:46;96832.22;;;3.41;100.00
49949;BME280;35840;45.982;8.890;2024-01-06T05:38:13;96820.41;;;3.40;100.00
49949;BME280;35840;45.982;8.890;2024-01-06T05:40:40;96826.25;;;3.42;100.00
49949;BME280;35840;45.982;8.890;2024-01-06T05:43:06;96826.78;;;3.47;100.00
49949;BME280;35840;45.982;8.890;2024-01-06T05:45:33;96827.13;;;3.41;100.00
49949;BME280;35840;45.982;8.890;2024-01-06T05:48:00;96828.34;;;3.19;100.00
49949;BME280;35840;45.982;8.890;2024-01-06T05:50:27;96827.41;;;3.20;100.00
49949;BME280;35840;45.982;8.890;2024-01-06T05:52:54;96821.13;;;3.27;100.00
49949;BME280;35840;45.982;8.890;2024-01-06T05:55:21;96814.22;;;3.30;100.00
49949;BME280;35840;45.982;8.890;2024-01-06T05:57:48;96811.69;;;3.30;100.00
49949;BME280;35840;45.982;8.890;2024-01-06T06:00:16;96819.13;;;3.33;100.00
49949;BME280;35840;45.982;8.890;2024-01-06T06:02:43;96809.94;;;3.30;100.00
49949;BME280;35840;45.982;8.890;2024-01-06T06:05:10;96816.81;;;3.14;100.00
49949;BME280;35840;45.982;8.890;2024-01-06T06:07:36;96829.97;;;3.20;100.00
49949;BME280;35840;45.982;8.890;2024-01-06T06:10:08;96823.19;;;3.21;100.00
49949;BME280;35840;45.982;8.890;2024-01-06T06:12:36;96830.03;;;3.35;100.00
49949;BME280;35840;45.982;8.890;2024-01-06T06:15:04;96838.94;;;3.42;100.00
49949;BME280;35840;45.982;8.890;2024-01-06T06:17:31;96830.56;;;3.40;100.00
49949;BME280;35840;45.982;8.890;2024-01-06T06:19:58;96813.53;;;3.42;100.00
49949;BME280;35840;45.982;8.890;2024-01-06T06:22:26;96819.81;;;3.51;100.00
49949;BME280;35840;45.982;8.890;2024-01-06T06:24:59;96816.38;;;3.52;100.00
49949;BME280;35840;45.982;8.890;2024-01-06T06:27:27;96806.31;;;3.50;100.00
49949;BME280;35840;45.982;8.890;2024-01-06T06:29:55;96804.47;;;3.52;100.00
49949;BME280;35840;45.982;8.890;2024-01-06T06:32:22;96799.97;;;3.57;100.00
49949;BME280;35840;45.982;8.890;2024-01-06T06:34:49;96799.97;;;3.57;100.00
49949;BME280;35840;45.982;8.890;2024-01-06T06:37:16;96802.22;;;3.48;100.00
49949;BME280;35840;45.982;8.890;2024-01-06T06:39:43;96809.19;;;3.44;100.00
49949;BME280;35840;45.982;8.890;2024-01-06T06:42:12;96811.91;;;3.41;100.00
49949;BME280;35840;45.982;8.890;2024-01-06T06:44:39;96802.63;;;3.40;100.00
49949;BME280;35840;45.982;8.890;2024-01-06T06:47:05;96798.75;;;3.49;100.00
49949;BME280;35840;45.982;8.890;2024-01-06T06:49:32;96798.84;;;3.47;100.00
49949;BME280;35840;45.982;8.890;2024-01-06T06:51:59;96801.56;;;3.44;100.00
49949;BME280;35840;45.982;8.890;2024-01-06T06:54:26;96805.75;;;3.45;100.00
49949;BME280;35840;45.982;8.890;2024-01-06T06:56:53;96804.09;;;3.44;100.00
49949;BME280;35840;45.982;8.890;2024-01-06T06:59:20;96809.22;;;3.28;100.00
49949;BME280;35840;45.982;8.890;2024-01-06T07:01:47;96813.97;;;3.34;100.00
49949;BME280;35840;45.982;8.890;2024-01-06T07:04:13;96810.91;;;3.43;100.00
49949;BME280;35840;45.982;8.890;2024-01-06T07:06:40;96790.34;;;3.18;100.00
49949;BME280;35840;45.982;8.890;2024-01-06T07:09:07;96816.84;;;3.28;100.00
49949;BME280;35840;45.982;8.890;2024-01-06T07:11:34;96811.50;;;3.33;100.00
49949;BME280;35840;45.982;8.890;2024-01-06T07:14:01;96805.72;;;3.31;100.00
49949;BME280;35840;45.982;8.890;2024-01-06T07:16:28;96801.81;;;3.39;100.00
49949;BME280;35840;45.982;8.890;2024-01-06T07:18:55;96807.50;;;3.28;100.00
49949;BME280;35840;45.982;8.890;2024-01-06T07:21:21;96803.34;;;3.27;100.00
49949;BME280;35840;45.982;8.890;2024-01-06T07:23:49;96808.25;;;3.31;100.00
49949;BME280;35840;45.982;8.890;2024-01-06T07:26:16;96809.31;;;3.26;100.00
49949;BME280;35840;45.982;8.890;2024-01-06T07:28:44;96802.91;;;3.35;100.00
49949;BME280;35840;45.982;8.890;2024-01-06T07:31:11;96807.63;;;3.41;100.00
49949;BME280;35840;45.982;8.890;2024-01-06T07:33:38;96807.47;;;3.44;100.00
49949;BME280;35840;45.982;8.890;2024-01-06T07:36:06;96797.09;;;3.33;100.00
49949;BME280;35840;45.982;8.890;2024-01-06T07:38:33;96807.50;;;3.28;100.00
49949;BME280;35840;45.982;8.890;2024-01-06T07:41:00;96813.56;;;3.26;100.00
49949;BME280;35840;45.982;8.890;2024-01-06T07:43:26;96807.38;;;3.16;100.00
49949;BME280;35840;45.982;8.890;2024-01-06T07:45:53;96799.34;;;3.23;100.00
49949;BME280;35840;45.982;8.890;2024-01-06T07:48:20;96811.59;;;3.31;100.00
49949;BME280;35840;45.982;8.890;2024-01-06T07:50:47;96811.78;;;3.28;100.00
49949;BME280;35840;45.982;8.890;2024-01-06T07:53:14;96814.72;;;3.36;100.00
49949;BME280;35840;45.982;8.890;2024-01-06T07:55:41;96802.09;;;3.35;100.00
49949;BME280;35840;45.982;8.890;2024-01-06T07:58:08;96809.28;;;3.42;100.00
49949;BME280;35840;45.982;8.890;2024-01-06T08:00:34;96804.38;;;3.39;100.00
49949;BME280;35840;45.982;8.890;2024-01-06T08:03:01;96801.81;;;3.39;100.00
49949;BME280;35840;45.982;8.890;2024-01-06T08:05:31;96808.69;;;3.37;100.00
49949;BME280;35840;45.982;8.890;2024-01-06T08:07:58;96797.91;;;3.34;100.00
49949;BME280;35840;45.982;8.890;2024-01-06T08:10:25;96792.84;;;3.34;100.00
49949;BME280;35840;45.982;8.890;2024-01-06T08:12:51;96772.22;;;3.24;100.00
49949;BME280;35840;45.982;8.890;2024-01-06T08:15:18;96793.63;;;3.34;100.00
49949;BME280;35840;45.982;8.890;2024-01-06T08:17:45;96806.09;;;3.39;100.00
49949;BME280;35840;45.982;8.890;2024-01-06T08:20:13;96810.88;;;3.29;100.00
49949;BME280;35840;45.982;8.890;2024-01-06T08:22:40;96826.34;;;3.40;100.00
49949;BME280;35840;45.982;8.890;2024-01-06T08:25:07;96806.91;;;3.39;100.00
49949;BME280;35840;45.982;8.890;2024-01-06T08:27:34;96819.88;;;3.35;100.00
49949;BME280;35840;45.982;8.890;2024-01-06T08:30:01;96804.19;;;3.42;100.00
49949;BME280;35840;45.982;8.890;2024-01-06T08:32:28;96810.28;;;3.54;100.00
49949;BME280;35840;45.982;8.890;2024-01-06T08:34:55;96805.75;;;3.45;100.00
49949;BME280;35840;45.982;8.890;2024-01-06T08:37:21;96810.28;;;3.54;100.00
49949;BME280;35840;45.982;8.890;2024-01-06T08:39:48;96806.84;;;3.55;100.00
49949;BME280;35840;45.982;8.890;2024-01-06T08:42:15;96807.91;;;3.51;100.00
49949;BME280;35840;45.982;8.890;2024-01-06T08:44:42;96814.44;;;3.41;100.00
49949;BME280;35840;45.982;8.890;2024-01-06T08:47:10;96810.63;;;3.48;100.00
49949;BME280;35840;45.982;8.890;2024-01-06T08:49:37;96816.81;;;3.58;100.00
49949;BME280;35840;45.982;8.890;2024-01-06T08:52:04;96810.22;;;3.56;100.00
49949;BME280;35840;45.982;8.890;2024-01-06T08:54:32;96813.13;;;3.64;100.00
49949;BME280;35840;45.982;8.890;2024-01-06T08:56:59;96801.44;;;3.61;100.00
49949;BME280;35840;45.982;8.890;2024-01-06T08:59:26;96816.13;;;3.71;100.00
49949;BME280;35840;45.982;8.890;2024-01-06T09:01:52;96807.13;;;3.65;100.00
49949;BME280;35840;45.982;8.890;2024-01-06T09:04:19;96816.03;;;3.72;100.00
49949;BME280;35840;45.982;8.890;2024-01-06T09:06:46;96819.47;;;3.71;100.00
49949;BME280;35840;45.982;8.890;2024-01-06T09:09:14;96820.31;;;3.72;100.00
49949;BME280;35840;45.982;8.890;2024-01-06T09:11:40;96824.94;;;3.79;100.00
49949;BME280;35840;45.982;8.890;2024-01-06T09:14:08;96825.22;;;3.75;100.00
49949;BME280;35840;45.982;8.890;2024-01-06T09:16:37;96818.25;;;3.78;100.00
49949;BME280;35840;45.982;8.890;2024-01-06T09:19:03;96811.91;;;3.86;100.00
49949;BME280;35840;45.982;8.890;2024-01-06T09:21:30;96815.63;;;3.80;100.00
49949;BME280;35840;45.982;8.890;2024-01-06T09:23:57;96800.53;;;3.77;100.00
49949;BME280;35840;45.982;8.890;2024-01-06T09:26:24;96812.63;;;3.88;100.00
49949;BME280;35840;45.982;8.890;2024-01-06T09:28:51;96807.25;;;3.92;100.00
49949;BME280;35840;45.982;8.890;2024-01-06T09:31:19;96816.06;;;3.87;100.00
49949;BME280;35840;45.982;8.890;2024-01-06T09:33:46;96810.25;;;3.85;100.00
49949;BME280;35840;45.982;8.890;2024-01-06T09:36:13;96815.53;;;3.96;100.00
49949;BME280;35840;45.982;8.890;2024-01-06T09:38:40;96808.53;;;4.00;100.00
49949;BME280;35840;45.982;8.890;2024-01-06T09:41:07;96819.53;;;4.00;100.00
49949;BME280;35840;45.982;8.890;2024-01-06T09:43:34;96809.34;;;4.00;100.00
49949;BME280;35840;45.982;8.890;2024-01-06T09:48:40;96808.25;;;4.19;100.00
49949;BME280;35840;45.982;8.890;2024-01-06T09:51:11;96805.53;;;4.22;100.00
49949;BME280;35840;45.982;8.890;2024-01-06T09:53:45;96805.81;;;4.17;100.00
49949;BME280;35840;45.982;8.890;2024-01-06T09:56:17;96808.59;;;4.12;100.00
49949;BME280;35840;45.982;8.890;2024-01-06T09:58:44;96808.88;;;4.22;100.00
49949;BME280;35840;45.982;8.890;2024-01-06T10:01:11;96803.28;;;4.17;100.00
49949;BME280;35840;45.982;8.890;2024-01-06T10:03:38;96814.16;;;4.19;100.00
49949;BME280;35840;45.982;8.890;2024-01-06T10:06:06;96798.56;;;4.25;100.00
49949;BME280;35840;45.982;8.890;2024-01-06T10:08:33;96796.72;;;4.27;100.00
49949;BME280;35840;45.982;8.890;2024-01-06T10:11:00;96801.81;;;4.27;100.00
49949;BME280;35840;45.982;8.890;2024-01-06T10:13:27;96802.44;;;4.31;100.00
49949;BME280;35840;45.982;8.890;2024-01-06T10:15:57;96808.81;;;4.38;100.00
49949;BME280;35840;45.982;8.890;2024-01-06T10:18:25;96809.78;;;4.36;100.00
49949;BME280;35840;45.982;8.890;2024-01-06T10:20:53;96807.06;;;4.39;100.00
49949;BME280;35840;45.982;8.890;2024-01-06T10:23:22;96783.09;;;4.28;100.00
49949;BME280;35840;45.982;8.890;2024-01-06T10:25:53;96817.69;;;4.45;100.00
49949;BME280;35840;45.982;8.890;2024-01-06T10:28:24;96806.41;;;4.50;100.00
49949;BME280;35840;45.982;8.890;2024-01-06T10:30:52;96802.78;;;4.54;100.00
49949;BME280;35840;45.982;8.890;2024-01-06T10:33:21;96799.41;;;4.53;100.00
49949;BME280;35840;45.982;8.890;2024-01-06T10:35:49;96785.69;;;4.56;100.00
49949;BME280;35840;45.982;8.890;2024-01-06T10:38:17;96777.13;;;4.57;100.00
49949;BME280;35840;45.982;8.890;2024-01-06T10:41:01;96767.66;;;4.59;100.00
49949;BME280;35840;45.982;8.890;2024-01-06T10:43:34;96781.38;;;4.56;100.00
49949;BME280;35840;45.982;8.890;2024-01-06T10:46:04;96771.84;;;4.60;100.00
49949;BME280;35840;45.982;8.890;2024-01-06T10:48:32;96757.19;;;4.63;100.00
49949;BME280;35840;45.982;8.890;2024-01-06T10:51:01;96756.53;;;4.74;100.00
49949;BME280;35840;45.982;8.890;2024-01-06T10:53:35;96759.50;;;4.81;100.00
49949;BME280;35840;45.982;8.890;2024-01-06T10:56:06;96751.69;;;4.84;100.00
49949;BME280;35840;45.982;8.890;2024-01-06T10:58:48;96750.47;;;4.90;100.00
49949;BME280;35840;45.982;8.890;2024-01-06T11:01:22;96746.09;;;4.92;100.00
49949;BME280;35840;45.982;8.890;2024-01-06T11:03:54;96751.72;;;4.97;100.00
49949;BME280;35840;45.982;8.890;2024-01-06T11:06:23;96742.88;;;5.03;100.00
49949;BME280;35840;45.982;8.890;2024-01-06T11:09:01;96733.31;;;5.06;100.00
49949;BME280;35840;45.982;8.890;2024-01-06T11:11:29;96737.47;;;5.07;100.00
49949;BME280;35840;45.982;8.890;2024-01-06T11:14:23;96733.91;;;5.10;100.00
49949;BME280;35840;45.982;8.890;2024-01-06T11:16:52;96723.22;;;5.05;100.00
49949;BME280;35840;45.982;8.890;2024-01-06T11:25:17;96712.00;;;5.20;100.00
49949;BME280;35840;45.982;8.890;2024-01-06T11:27:49;96705.22;;;5.21;100.00
49949;BME280;35840;45.982;8.890;2024-01-06T11:30:27;96708.25;;;5.26;100.00
49949;BME280;35840;45.982;8.890;2024-01-06T11:33:04;96710.00;;;5.25;100.00
49949;BME280;35840;45.982;8.890;2024-01-06T11:35:31;96701.75;;;5.34;100.00
49949;BME280;35840;45.982;8.890;2024-01-06T11:38:01;96689.94;;;5.33;100.00
49949;BME280;35840;45.982;8.890;2024-01-06T11:40:35;96701.34;;;5.41;100.00
49949;BME280;35840;45.982;8.890;2024-01-06T11:43:03;96700.72;;;5.37;100.00
49949;BME280;35840;45.982;8.890;2024-01-06T11:45:35;96688.06;;;5.35;100.00
49949;BME280;35840;45.982;8.890;2024-01-06T11:48:06;96688.81;;;5.38;100.00
49949;BME280;35840;45.982;8.890;2024-01-06T11:50:36;96685.25;;;5.40;100.00
49949;BME280;35840;45.982;8.890;2024-01-06T11:53:04;96682.59;;;5.42;100.00
49949;BME280;35840;45.982;8.890;2024-01-06T11:55:31;96681.16;;;5.38;100.00
49949;BME280;35840;45.982;8.890;2024-01-06T11:58:02;96674.00;;;5.43;100.00
49949;BME280;35840;45.982;8.890;2024-01-06T12:00:32;96679.84;;;5.45;100.00
49949;BME280;35840;45.982;8.890;2024-01-06T12:03:00;96677.06;;;5.48;100.00
49949;BME280;35840;45.982;8.890;2024-01-06T12:05:28;96663.09;;;5.54;100.00
49949;BME280;35840;45.982;8.890;2024-01-06T12:08:01;96636.28;;;5.48;100.00
49949;BME280;35840;45.982;8.890;2024-01-06T12:10:29;96650.78;;;5.60;100.00
49949;BME280;35840;45.982;8.890;2024-01-06T12:15:26;96656.25;;;5.67;100.00
49949;BME280;35840;45.982;8.890;2024-01-06T12:17:53;96642.44;;;5.82;100.00
49949;BME280;35840;45.982;8.890;2024-01-06T12:21:15;96628.16;;;5.93;100.00
49949;BME280;35840;45.982;8.890;2024-01-06T12:23:36;96637.06;;;5.87;100.00
49949;BME280;35840;45.982;8.890;2024-01-06T12:26:04;96628.56;;;5.86;100.00
49949;BME280;35840;45.982;8.890;2024-01-06T12:28:30;96621.09;;;5.96;100.00
49949;BME280;35840;45.982;8.890;2024-01-06T12:30:57;96625.19;;;5.99;100.00
49949;BME280;35840;45.982;8.890;2024-01-06T12:33:24;96616.53;;;6.01;100.00
49949;BME280;35840;45.982;8.890;2024-01-06T12:35:52;96617.66;;;5.97;100.00
49949;BME280;35840;45.982;8.890;2024-01-06T12:38:20;96615.38;;;6.06;100.00
49949;BME280;35840;45.982;8.890;2024-01-06T12:40:46;96614.16;;;6.11;100.00
49949;BME280;35840;45.982;8.890;2024-01-06T12:43:13;96616.19;;;6.06;100.00
49949;BME280;35840;45.982;8.890;2024-01-06T12:45:40;96603.56;;;6.05;100.00
49949;BME280;35840;45.982;8.890;2024-01-06T12:48:07;96606.72;;;6.08;100.00
49949;BME280;35840;45.982;8.890;2024-01-06T12:50:34;96594.88;;;6.07;100.00
49949;BME280;35840;45.982;8.890;2024-01-06T12:53:01;96595.50;;;6.22;100.00
49949;BME280;35840;45.982;8.890;2024-01-06T12:55:28;96588.78;;;6.21;100.00
49949;BME280;35840;45.982;8.890;2024-01-06T12:57:55;96581.81;;;6.23;100.00
49949;BME280;35840;45.982;8.890;2024-01-06T13:00:22;96591.38;;;6.32;100.00
49949;BME280;35840;45.982;8.890;2024-01-06T13:02:49;96592.66;;;6.27;100.00
49949;BME280;35840;45.982;8.890;2024-01-06T13:05:16;96578.75;;;6.31;100.00
49949;BME280;35840;45.982;8.890;2024-01-06T13:07:43;96588.00;;;6.32;100.00
49949;BME280;35840;45.982;8.890;2024-01-06T13:10:10;96589.88;;;6.30;100.00
49949;BME280;35840;45.982;8.890;2024-01-06T13:12:37;96575.34;;;6.30;100.00
49949;BME280;35840;45.982;8.890;2024-01-06T13:15:04;96578.81;;;6.29;100.00